Moree Airport
YMOR : now visible

Airfield :











YOU CAN JOIN US ON...

 
LOGIN :

Register | Disclaimer

   EN    FR    IT 

 









Legend :    VFR   Marginal VFR   IFR   Intensive IFR   Very Intensive IFR
Visi :
Ceiling :
>= 8 km
>= 3000ft
5 to 8 km
1000 to 3000 ft
1500m to 5 km
500 to 1000 ft
800 to 1500m
200 to 500 ft
< 800m
< 200 ft
Symbols :   Thunderstorms  Fog  Heavy snow  Heavy precipitations  Wind > 20 kt






- Airport Elevation : 701 ft
- IATA code : MRZ


YMOR - Moree

CURRENT METAR :
  • 012200Z AUTO 23008KT 1000 // OVC001 11/10 Q1020

EXPIRED METARs :
  • 012130Z AUTO 23009KT 1000 // OVC001 11/10 Q1020
  • 012100Z AUTO 24007KT 5000 // OVC003 11/10 Q1020
  • 012030Z AUTO 23006KT 0300 // OVC002 12/11 Q1020
  • 010530Z AUTO 09005KT 7000 // BKN003 BKN056 OVC068 13/12 Q1021
  • 012000Z AUTO 24005KT 0250 // OVC002 12/11 Q1019
  • 011930Z AUTO 22004KT 0250 // OVC002 12/11 Q1019

TAF N/A
YBBB FIR / Oceania



MET'MAP, your aeronautical weather chart ! - Copyright ORBIFLY December 2007 - Disclaimer

ORBIFLY MET'MAP TEAM :

Programming & Development : Alexandra Zaïnal
Original concept : Baudouin d'Aumeries
Technical & hardware support : Manuel Goepfert
Assistance : Marc-Olivier Méhu




SOURCES & CREDITS :

   NOAA       Earth
Advisory